Time;durP1;ratioP1;P1;durP2;ratioP2;P2;SDS_P1;SDS_P2;PMS_P1;PMS_P2;Temp;Humidity;BMP_temperature;BMP_pressure;BME280_temperature;BME280_humidity;BME280_pressure;Samples;Min_cycle;Max_cycle;Signal;HPM_P1;HPM_P2
2024/04/21 00:02:04;;;;;;;8.35;2.83;;;;;;;;;;4979746;28;20028;-74
2024/04/21 00:04:37;;;;;;;8.70;2.40;;;;;;;;;;4979642;28;20033;-80
2024/04/21 00:07:09;;;;;;;9.55;3.55;;;;;;;;;;4980531;28;20493;-73
2024/04/21 00:09:39;;;;;;;9.45;3.28;;;;;;;;;;4978960;28;20037;-76
2024/04/21 00:12:11;;;;;;;4.97;2.28;;;;;;;;;;4980802;28;20033;-74
2024/04/21 00:14:41;;;;;;;4.85;1.98;;;;;;;;;;4981796;28;20044;-74
2024/04/21 00:17:12;;;;;;;4.80;1.45;;;;;;;;;;4980415;28;20036;-76
2024/04/21 00:19:42;;;;;;;4.57;1.55;;;;;;;;;;4978761;28;20044;-73
2024/04/21 00:22:14;;;;;;;9.13;2.08;;;;;;;;;;4978775;28;20036;-77
2024/04/21 00:24:46;;;;;;;1.90;1.38;;;;;;;;;;4917571;29;20010;-77
2024/04/21 00:27:16;;;;;;;4.80;1.60;;;;;;;;;;4919133;29;20020;-73
2024/04/21 00:29:46;;;;;;;5.70;2.00;;;;;;;;;;4917377;29;20375;-78
2024/04/21 00:32:18;;;;;;;4.18;2.13;;;;;;;;;;4932751;28;20012;-74
2024/04/21 00:34:49;;;;;;;5.63;1.92;;;;;;;;;;4951966;28;20021;-74
2024/04/21 00:37:21;;;;;;;3.00;1.70;;;;;;;;;;4973121;28;20497;-75
2024/04/21 00:39:51;;;;;;;2.92;1.80;;;;;;;;;;4978628;28;20008;-77
2024/04/21 00:42:22;;;;;;;3.13;1.73;;;;;;;;;;4953919;28;20041;-72
2024/04/21 00:44:54;;;;;;;3.65;1.58;;;;;;;;;;4979225;28;20053;-73
2024/04/21 00:47:24;;;;;;;3.42;1.63;;;;;;;;;;4979147;28;20026;-71
2024/04/21 00:49:55;;;;;;;4.50;1.63;;;;;;;;;;4978768;28;20522;-74
2024/04/21 00:52:26;;;;;;;6.30;1.85;;;;;;;;;;4976951;28;20547;-77
2024/04/21 00:54:57;;;;;;;4.05;1.90;;;;;;;;;;4976766;28;20005;-77
2024/04/21 00:57:27;;;;;;;7.03;1.88;;;;;;;;;;4979500;28;20376;-77
2024/04/21 00:59:57;;;;;;;5.88;2.17;;;;;;;;;;4978614;28;20033;-75
2024/04/21 01:02:28;;;;;;;6.22;2.35;;;;;;;;;;4978234;28;20032;-77
2024/04/21 01:05:00;;;;;;;6.07;2.40;;;;;;;;;;4949767;28;20038;-72
2024/04/21 01:07:31;;;;;;;4.07;2.08;;;;;;;;;;4978565;28;20617;-76
2024/04/21 01:10:01;;;;;;;6.72;1.75;;;;;;;;;;4978314;28;20509;-76
2024/04/21 01:12:42;;;;;;;4.43;1.85;;;;;;;;;;4981187;28;20021;-75
2024/04/21 01:15:14;;;;;;;5.68;1.98;;;;;;;;;;4981608;28;20032;-76
2024/04/21 01:17:44;;;;;;;4.03;2.08;;;;;;;;;;4981250;28;20040;-74
2024/04/21 01:20:16;;;;;;;3.20;2.00;;;;;;;;;;4980765;28;20033;-74
2024/04/21 01:22:48;;;;;;;3.78;2.13;;;;;;;;;;4981081;28;20782;-76
2024/04/21 01:25:20;;;;;;;8.43;2.15;;;;;;;;;;4981927;28;20029;-78
2024/04/21 01:27:51;;;;;;;3.70;1.92;;;;;;;;;;4981440;28;20008;-75
2024/04/21 01:30:21;;;;;;;4.93;2.20;;;;;;;;;;4981576;28;20032;-74
2024/04/21 01:32:53;;;;;;;6.60;2.30;;;;;;;;;;4981674;28;20033;-76
2024/04/21 01:35:24;;;;;;;7.45;1.85;;;;;;;;;;4980994;28;20074;-74
2024/04/21 01:37:55;;;;;;;5.93;2.15;;;;;;;;;;4981031;28;20009;-72
2024/04/21 01:40:25;;;;;;;6.95;1.90;;;;;;;;;;4955435;28;20554;-78
2024/04/21 01:42:58;;;;;;;10.52;1.73;;;;;;;;;;4982050;28;20040;-74
2024/04/21 01:45:30;;;;;;;5.22;2.03;;;;;;;;;;4980644;28;20032;-74
2024/04/21 01:48:01;;;;;;;5.60;1.98;;;;;;;;;;4980691;28;20005;-74
2024/04/21 01:50:31;;;;;;;2.83;1.58;;;;;;;;;;4981450;28;20036;-74
2024/04/21 01:53:02;;;;;;;7.50;2.10;;;;;;;;;;4980955;28;20354;-77
2024/04/21 01:55:33;;;;;;;3.83;1.60;;;;;;;;;;4981202;28;20032;-76
2024/04/21 01:58:03;;;;;;;5.47;1.90;;;;;;;;;;4981056;28;20041;-76
2024/04/21 02:00:35;;;;;;;9.88;2.15;;;;;;;;;;4954112;28;20036;-74
2024/04/21 02:03:05;;;;;;;6.68;1.88;;;;;;;;;;4981148;28;20029;-76
2024/04/21 02:05:37;;;;;;;3.88;1.65;;;;;;;;;;4981153;28;20032;-73
2024/04/21 02:08:07;;;;;;;5.50;1.67;;;;;;;;;;4980413;28;20000;-74
2024/04/21 02:10:37;;;;;;;7.85;2.10;;;;;;;;;;4980971;28;20036;-72
2024/04/21 02:13:08;;;;;;;3.20;1.90;;;;;;;;;;4980820;28;20695;-72
2024/04/21 02:15:42;;;;;;;7.30;2.00;;;;;;;;;;4981465;28;20032;-74
2024/04/21 02:18:12;;;;;;;2.20;1.45;;;;;;;;;;4981202;28;20044;-78
2024/04/21 02:20:43;;;;;;;7.05;2.15;;;;;;;;;;4981994;28;20557;-74
2024/04/21 02:23:14;;;;;;;2.50;1.77;;;;;;;;;;4980591;28;20032;-73
2024/04/21 02:25:44;;;;;;;3.60;2.03;;;;;;;;;;4929386;28;20357;-73
2024/04/21 02:28:15;;;;;;;3.13;1.85;;;;;;;;;;4980126;28;20004;-75
2024/04/21 02:30:47;;;;;;;6.75;1.77;;;;;;;;;;4980696;28;20493;-76
2024/04/21 02:33:17;;;;;;;6.63;2.08;;;;;;;;;;4980913;28;20490;-76
2024/04/21 02:35:50;;;;;;;4.13;1.60;;;;;;;;;;4980195;28;20775;-77
2024/04/21 02:38:22;;;;;;;5.20;1.77;;;;;;;;;;4954486;28;20037;-76
2024/04/21 02:40:53;;;;;;;12.70;2.05;;;;;;;;;;4980402;28;20486;-75
2024/04/21 02:43:23;;;;;;;2.35;1.60;;;;;;;;;;4954617;28;20011;-76
2024/04/21 02:45:55;;;;;;;3.50;1.88;;;;;;;;;;4980079;28;20052;-75
2024/04/21 02:48:29;;;;;;;3.55;2.08;;;;;;;;;;4979891;28;20488;-76
2024/04/21 02:51:01;;;;;;;6.35;2.45;;;;;;;;;;4980488;28;20036;-75
2024/04/21 02:53:31;;;;;;;6.18;2.72;;;;;;;;;;4980912;28;20390;-78
2024/04/21 02:56:01;;;;;;;4.07;2.67;;;;;;;;;;4979992;28;20032;-75
2024/04/21 02:58:32;;;;;;;8.68;2.80;;;;;;;;;;4952800;28;20011;-78
2024/04/21 03:01:05;;;;;;;5.60;2.63;;;;;;;;;;4979783;28;20037;-73
2024/04/21 03:03:35;;;;;;;2.78;2.05;;;;;;;;;;4954409;28;20151;-73
2024/04/21 03:06:05;;;;;;;10.43;2.40;;;;;;;;;;4980867;28;20038;-78
2024/04/21 03:08:36;;;;;;;3.40;2.15;;;;;;;;;;4980575;28;20045;-77
2024/04/21 03:11:06;;;;;;;9.30;2.40;;;;;;;;;;4980210;28;20005;-78
2024/04/21 03:13:37;;;;;;;4.72;2.40;;;;;;;;;;4953864;28;20040;-78
2024/04/21 03:16:08;;;;;;;6.10;2.50;;;;;;;;;;4980148;28;20033;-74
2024/04/21 03:18:39;;;;;;;6.15;2.80;;;;;;;;;;4979602;28;20015;-74
2024/04/21 03:21:09;;;;;;;4.43;2.15;;;;;;;;;;4980162;28;20484;-76
2024/04/21 03:23:40;;;;;;;11.18;2.67;;;;;;;;;;4980000;28;20029;-75
2024/04/21 03:26:10;;;;;;;3.42;2.08;;;;;;;;;;4980899;28;20028;-76
2024/04/21 03:28:41;;;;;;;5.53;2.42;;;;;;;;;;4979082;28;20008;-75
2024/04/21 03:31:12;;;;;;;6.32;2.65;;;;;;;;;;4953132;28;20030;-76
2024/04/21 03:33:44;;;;;;;10.45;2.88;;;;;;;;;;4979019;28;20036;-72
2024/04/21 03:36:15;;;;;;;3.72;2.08;;;;;;;;;;4953641;28;20015;-76
2024/04/21 03:38:45;;;;;;;10.20;2.92;;;;;;;;;;4979844;28;20607;-76
2024/04/21 03:41:16;;;;;;;4.97;2.00;;;;;;;;;;4953609;28;20033;-76
2024/04/21 03:43:48;;;;;;;2.50;1.73;;;;;;;;;;4980496;28;20453;-74
2024/04/21 03:46:19;;;;;;;5.70;2.35;;;;;;;;;;4980082;28;20048;-75
2024/04/21 03:48:52;;;;;;;4.88;1.92;;;;;;;;;;4980053;28;20004;-77
2024/04/21 03:51:23;;;;;;;3.90;2.10;;;;;;;;;;4982756;28;20037;-74
2024/04/21 03:53:54;;;;;;;4.70;2.30;;;;;;;;;;4981910;28;20481;-74
2024/04/21 03:56:24;;;;;;;3.35;2.00;;;;;;;;;;4980884;28;20033;-77
2024/04/21 03:58:54;;;;;;;6.25;2.53;;;;;;;;;;4952539;28;20033;-75
2024/04/21 04:01:26;;;;;;;4.35;2.30;;;;;;;;;;4953959;28;20090;-75
2024/04/21 04:03:56;;;;;;;3.17;2.00;;;;;;;;;;4979772;28;20032;-76
2024/04/21 04:06:26;;;;;;;5.57;2.55;;;;;;;;;;4980063;28;20080;-74
2024/04/21 04:08:58;;;;;;;4.45;1.88;;;;;;;;;;4953500;28;20015;-76
2024/04/21 04:11:28;;;;;;;4.55;2.08;;;;;;;;;;4979235;28;20021;-75
2024/04/21 04:13:59;;;;;;;9.35;2.85;;;;;;;;;;4979205;28;20033;-74
2024/04/21 04:16:29;;;;;;;7.47;2.28;;;;;;;;;;4979792;28;20511;-73
2024/04/21 04:19:01;;;;;;;4.90;2.35;;;;;;;;;;4979774;28;20036;-77
2024/04/21 04:21:31;;;;;;;6.00;2.35;;;;;;;;;;4979182;28;20028;-75
2024/04/21 04:24:03;;;;;;;3.97;2.45;;;;;;;;;;4978102;28;20051;-76
2024/04/21 04:26:33;;;;;;;3.63;2.47;;;;;;;;;;4978708;28;20032;-76
2024/04/21 04:29:03;;;;;;;5.80;2.40;;;;;;;;;;4978788;28;20005;-76
2024/04/21 04:31:34;;;;;;;3.90;2.30;;;;;;;;;;4979210;28;20036;-74
2024/04/21 04:34:05;;;;;;;9.38;2.90;;;;;;;;;;4979691;28;20037;-74
2024/04/21 04:36:36;;;;;;;6.20;2.00;;;;;;;;;;4952786;28;20030;-77
2024/04/21 04:39:08;;;;;;;3.72;2.10;;;;;;;;;;4978727;28;20044;-75
2024/04/21 04:41:39;;;;;;;9.00;2.28;;;;;;;;;;4979039;28;20040;-75
2024/04/21 04:44:09;;;;;;;6.38;2.38;;;;;;;;;;4978860;28;20028;-75
2024/04/21 04:46:40;;;;;;;10.18;2.40;;;;;;;;;;4979795;28;20485;-77
2024/04/21 04:49:10;;;;;;;5.60;2.38;;;;;;;;;;4981874;28;20005;-73
2024/04/21 04:51:40;;;;;;;4.97;2.35;;;;;;;;;;4954991;28;20005;-73
2024/04/21 04:54:13;;;;;;;5.97;2.75;;;;;;;;;;4981834;28;20618;-76
2024/04/21 04:56:43;;;;;;;10.50;2.90;;;;;;;;;;4980540;28;20529;-76
2024/04/21 04:59:14;;;;;;;4.65;1.77;;;;;;;;;;4982369;28;20032;-73
2024/04/21 05:01:44;;;;;;;5.75;2.55;;;;;;;;;;4981630;28;20480;-77
2024/04/21 05:04:14;;;;;;;7.00;2.22;;;;;;;;;;4981244;28;20497;-75
2024/04/21 05:06:46;;;;;;;6.53;2.38;;;;;;;;;;4957850;28;20383;-72
2024/04/21 05:09:16;;;;;;;8.13;2.10;;;;;;;;;;4990784;28;20041;-74
2024/04/21 05:11:47;;;;;;;9.20;2.55;;;;;;;;;;4989902;28;20025;-72
2024/04/21 05:14:16;;;;;;;10.65;2.50;;;;;;;;;;4987802;28;20040;-75
2024/04/21 05:16:47;;;;;;;10.75;2.47;;;;;;;;;;4982495;28;20505;-72
2024/04/21 05:19:19;;;;;;;6.47;2.50;;;;;;;;;;4981437;28;20056;-74
2024/04/21 05:21:49;;;;;;;5.88;2.35;;;;;;;;;;4981680;28;20048;-76
2024/04/21 05:24:19;;;;;;;5.65;2.25;;;;;;;;;;4980997;28;20037;-76
2024/04/21 05:26:50;;;;;;;10.82;2.40;;;;;;;;;;4981928;28;20383;-74
2024/04/21 05:29:21;;;;;;;8.65;2.42;;;;;;;;;;4980898;28;20004;-75
2024/04/21 05:31:53;;;;;;;8.75;2.63;;;;;;;;;;4981080;28;20718;-74
2024/04/21 05:34:23;;;;;;;4.47;2.17;;;;;;;;;;4981375;28;20031;-76
2024/04/21 05:36:53;;;;;;;4.32;2.63;;;;;;;;;;4981816;28;20032;-75
2024/04/21 05:39:25;;;;;;;5.30;2.40;;;;;;;;;;4981243;28;20036;-75
2024/04/21 05:41:56;;;;;;;6.57;3.15;;;;;;;;;;4980656;28;20028;-75
2024/04/21 05:44:28;;;;;;;3.38;2.42;;;;;;;;;;4981576;28;20036;-74
2024/04/21 05:46:59;;;;;;;7.18;2.30;;;;;;;;;;4981377;28;20036;-75
2024/04/21 05:49:30;;;;;;;13.20;2.67;;;;;;;;;;4988721;28;20025;-76
2024/04/21 05:52:01;;;;;;;2.90;2.00;;;;;;;;;;4990211;28;20036;-72
2024/04/21 05:54:32;;;;;;;4.50;2.50;;;;;;;;;;4983110;28;20387;-74
2024/04/21 05:57:03;;;;;;;7.05;2.42;;;;;;;;;;4980671;28;20033;-74
2024/04/21 05:59:33;;;;;;;7.72;2.70;;;;;;;;;;4981001;28;20028;-75
2024/04/21 06:02:05;;;;;;;6.35;2.40;;;;;;;;;;4980907;28;20033;-77
2024/04/21 06:04:35;;;;;;;7.05;2.55;;;;;;;;;;4980798;28;20041;-73
2024/04/21 06:07:06;;;;;;;3.60;2.30;;;;;;;;;;4981050;28;20036;-76
2024/04/21 06:09:37;;;;;;;6.57;2.08;;;;;;;;;;4981006;28;20078;-75
2024/04/21 06:12:09;;;;;;;3.63;2.28;;;;;;;;;;4981182;28;20032;-77
2024/04/21 06:14:40;;;;;;;3.40;2.15;;;;;;;;;;4981032;28;20052;-75
2024/04/21 06:17:10;;;;;;;12.02;2.38;;;;;;;;;;4981195;28;20033;-75
2024/04/21 06:19:40;;;;;;;5.82;2.25;;;;;;;;;;4980788;28;20650;-77
2024/04/21 06:22:14;;;;;;;5.25;2.20;;;;;;;;;;4954094;28;20008;-75
2024/04/21 06:24:45;;;;;;;4.07;2.08;;;;;;;;;;4979808;28;20037;-77
2024/04/21 06:27:15;;;;;;;3.03;2.13;;;;;;;;;;4980981;28;20048;-77
2024/04/21 06:29:45;;;;;;;4.90;2.58;;;;;;;;;;4953176;28;20031;-72
2024/04/21 06:32:15;;;;;;;5.10;2.00;;;;;;;;;;4980571;28;20028;-75
2024/04/21 06:34:46;;;;;;;5.20;2.47;;;;;;;;;;4954179;28;20041;-77
2024/04/21 06:37:17;;;;;;;6.00;2.47;;;;;;;;;;4980197;28;20033;-77
2024/04/21 06:39:47;;;;;;;3.17;2.08;;;;;;;;;;4980908;28;20465;-74
2024/04/21 06:42:18;;;;;;;5.05;2.40;;;;;;;;;;4981369;28;20040;-74
2024/04/21 06:44:48;;;;;;;4.45;2.33;;;;;;;;;;4980842;28;20050;-76
2024/04/21 06:47:20;;;;;;;7.20;2.20;;;;;;;;;;4979707;28;20032;-75
2024/04/21 06:49:53;;;;;;;3.28;1.80;;;;;;;;;;4954897;28;20004;-74
2024/04/21 06:52:23;;;;;;;3.72;2.10;;;;;;;;;;4980401;28;20036;-74
2024/04/21 06:54:54;;;;;;;13.13;1.98;;;;;;;;;;4954538;28;20004;-74
2024/04/21 06:57:25;;;;;;;2.22;1.70;;;;;;;;;;4980504;28;20417;-75
2024/04/21 06:59:55;;;;;;;2.90;1.83;;;;;;;;;;4980239;28;20005;-75
2024/04/21 07:02:27;;;;;;;4.55;2.15;;;;;;;;;;4954601;28;20004;-75
2024/04/21 07:04:58;;;;;;;3.58;2.20;;;;;;;;;;4953948;28;21138;-75
2024/04/21 07:07:29;;;;;;;4.95;2.22;;;;;;;;;;4980329;28;20008;-73
2024/04/21 07:09:59;;;;;;;3.17;1.60;;;;;;;;;;4979627;28;20048;-76
2024/04/21 07:12:29;;;;;;;4.82;2.28;;;;;;;;;;4979983;28;20052;-74
2024/04/21 07:15:00;;;;;;;3.58;2.15;;;;;;;;;;4979997;28;20041;-72
2024/04/21 07:17:31;;;;;;;8.32;2.28;;;;;;;;;;4954176;28;20045;-76
2024/04/21 07:20:01;;;;;;;3.42;2.13;;;;;;;;;;4980461;28;20034;-76
2024/04/21 07:22:31;;;;;;;3.75;2.05;;;;;;;;;;4980132;28;20041;-73
2024/04/21 07:25:07;;;;;;;4.47;2.28;;;;;;;;;;4952899;28;20054;-75
2024/04/21 07:27:51;;;;;;;3.15;1.80;;;;;;;;;;4979893;28;20018;-73
2024/04/21 07:30:21;;;;;;;3.35;2.03;;;;;;;;;;4979664;28;21204;-75
2024/04/21 07:32:51;;;;;;;4.13;2.00;;;;;;;;;;4980189;28;20477;-75
2024/04/21 07:35:22;;;;;;;4.72;2.30;;;;;;;;;;4980728;28;20036;-74
2024/04/21 07:37:54;;;;;;;3.13;2.10;;;;;;;;;;4980434;28;20037;-73
2024/04/21 07:40:24;;;;;;;6.20;2.20;;;;;;;;;;4979824;28;20004;-74
2024/04/21 07:42:55;;;;;;;5.45;2.20;;;;;;;;;;4979807;28;20005;-73
2024/04/21 07:45:26;;;;;;;4.22;2.03;;;;;;;;;;4979484;28;20028;-73
2024/04/21 07:47:56;;;;;;;3.53;1.88;;;;;;;;;;4979077;28;20044;-75
2024/04/21 07:50:28;;;;;;;5.00;2.25;;;;;;;;;;4979703;28;20028;-75
2024/04/21 07:52:58;;;;;;;4.38;2.08;;;;;;;;;;4979576;28;20029;-76
2024/04/21 07:55:28;;;;;;;9.93;2.33;;;;;;;;;;4979106;28;20032;-76
2024/04/21 07:58:01;;;;;;;4.78;2.25;;;;;;;;;;4979103;28;20032;-73
2024/04/21 08:00:32;;;;;;;3.28;1.88;;;;;;;;;;4979365;28;20015;-75
2024/04/21 08:03:04;;;;;;;3.15;2.10;;;;;;;;;;4980346;28;20041;-76
2024/04/21 08:05:35;;;;;;;5.35;1.95;;;;;;;;;;4979653;28;20036;-76
2024/04/21 08:08:05;;;;;;;4.63;2.50;;;;;;;;;;4979668;28;20033;-73
2024/04/21 08:10:36;;;;;;;4.47;2.20;;;;;;;;;;4980159;28;20028;-76
2024/04/21 08:13:22;;;;;;;7.97;3.10;;;;;;;;;;4979686;28;20033;-74
2024/04/21 08:15:53;;;;;;;5.72;2.60;;;;;;;;;;4979464;28;20005;-74
2024/04/21 08:18:23;;;;;;;7.75;2.72;;;;;;;;;;4979519;28;20033;-73
2024/04/21 08:20:54;;;;;;;11.65;2.42;;;;;;;;;;4981968;28;20005;-72
2024/04/21 08:23:24;;;;;;;6.32;2.20;;;;;;;;;;4981565;28;20505;-74
2024/04/21 08:25:59;;;;;;;9.50;2.10;;;;;;;;;;4982429;28;20796;-76
2024/04/21 08:28:30;;;;;;;4.10;2.42;;;;;;;;;;4981553;28;20040;-76
2024/04/21 08:31:02;;;;;;;6.80;2.50;;;;;;;;;;4982116;28;20019;-72
2024/04/21 08:33:32;;;;;;;3.55;2.40;;;;;;;;;;4981834;28;20044;-74
2024/04/21 08:36:03;;;;;;;4.35;2.55;;;;;;;;;;4982147;28;20005;-76
2024/04/21 08:38:33;;;;;;;5.88;2.25;;;;;;;;;;4955633;28;20009;-73
2024/04/21 08:41:17;;;;;;;4.40;2.58;;;;;;;;;;4982084;28;20352;-72
2024/04/21 08:43:49;;;;;;;3.67;2.10;;;;;;;;;;4981538;28;20479;-75
2024/04/21 08:46:21;;;;;;;13.05;2.55;;;;;;;;;;4980857;28;20036;-78
2024/04/21 08:48:52;;;;;;;6.97;2.33;;;;;;;;;;4981422;28;20029;-72
2024/04/21 08:51:25;;;;;;;3.38;2.17;;;;;;;;;;4982036;28;20036;-76
2024/04/21 08:53:56;;;;;;;4.35;2.10;;;;;;;;;;4982500;28;20009;-75
2024/04/21 08:56:29;;;;;;;3.70;2.30;;;;;;;;;;4982328;28;20036;-74
2024/04/21 08:59:02;;;;;;;3.13;2.10;;;;;;;;;;4982220;28;20029;-76
2024/04/21 09:01:34;;;;;;;4.38;1.90;;;;;;;;;;4954517;28;20009;-76
2024/04/21 09:04:06;;;;;;;5.07;2.10;;;;;;;;;;4982161;28;20033;-73
2024/04/21 09:06:39;;;;;;;4.43;2.50;;;;;;;;;;4982197;28;20032;-76
2024/04/21 09:09:09;;;;;;;11.20;3.00;;;;;;;;;;4954585;28;20019;-73
2024/04/21 09:11:40;;;;;;;3.42;2.58;;;;;;;;;;4981619;28;20362;-73
2024/04/21 09:14:11;;;;;;;4.15;2.60;;;;;;;;;;4981769;28;20037;-74
2024/04/21 09:16:42;;;;;;;4.60;2.30;;;;;;;;;;4981844;28;20033;-75
2024/04/21 09:19:12;;;;;;;5.22;2.42;;;;;;;;;;4980741;28;20032;-74
2024/04/21 09:21:42;;;;;;;6.60;2.70;;;;;;;;;;4981030;28;20005;-72
2024/04/21 09:24:14;;;;;;;6.38;2.30;;;;;;;;;;4981866;28;20048;-76
2024/04/21 09:26:46;;;;;;;4.43;2.25;;;;;;;;;;4981526;28;20028;-76
2024/04/21 09:29:16;;;;;;;6.15;2.35;;;;;;;;;;4981362;28;20029;-74
2024/04/21 09:31:48;;;;;;;5.93;2.40;;;;;;;;;;4981272;28;20040;-75
2024/04/21 09:34:21;;;;;;;3.17;2.28;;;;;;;;;;4981081;28;20029;-75
2024/04/21 09:36:55;;;;;;;15.30;1.92;;;;;;;;;;4955666;28;20000;-74
2024/04/21 09:39:27;;;;;;;3.38;1.70;;;;;;;;;;4981000;28;20028;-76
2024/04/21 09:41:59;;;;;;;2.33;1.80;;;;;;;;;;4980610;28;20449;-74
2024/04/21 09:44:31;;;;;;;5.22;2.33;;;;;;;;;;4980464;28;20481;-78
2024/04/21 09:47:02;;;;;;;5.65;2.35;;;;;;;;;;4956072;28;20032;-76
2024/04/21 09:49:35;;;;;;;7.00;2.17;;;;;;;;;;4981789;28;20496;-75
2024/04/21 09:52:06;;;;;;;5.45;2.53;;;;;;;;;;4980790;28;20539;-75
2024/04/21 09:54:38;;;;;;;3.65;2.15;;;;;;;;;;4981262;28;20033;-77
2024/04/21 09:57:17;;;;;;;10.45;2.38;;;;;;;;;;4980989;28;20040;-75
2024/04/21 09:59:49;;;;;;;3.95;2.30;;;;;;;;;;4980725;28;20004;-74
2024/04/21 10:02:25;;;;;;;3.30;2.10;;;;;;;;;;4981309;28;20582;-75
2024/04/21 10:05:07;;;;;;;2.65;1.90;;;;;;;;;;4980965;28;20032;-76
2024/04/21 10:07:39;;;;;;;4.85;2.13;;;;;;;;;;4953364;28;20042;-72
2024/04/21 10:10:20;;;;;;;3.38;2.13;;;;;;;;;;4954221;28;20018;-73
2024/04/21 10:12:54;;;;;;;3.25;2.20;;;;;;;;;;4980330;28;20033;-76
2024/04/21 10:15:27;;;;;;;4.40;2.70;;;;;;;;;;4981421;28;20390;-75
2024/04/21 10:18:01;;;;;;;4.60;2.33;;;;;;;;;;4981102;28;20005;-73
2024/04/21 10:20:36;;;;;;;4.03;2.40;;;;;;;;;;4981418;28;20032;-74
2024/04/21 10:23:10;;;;;;;3.33;1.98;;;;;;;;;;4980787;28;20399;-76
2024/04/21 10:25:43;;;;;;;5.88;2.10;;;;;;;;;;4981243;28;20036;-80
2024/04/21 10:28:25;;;;;;;5.20;2.10;;;;;;;;;;4980402;28;20048;-72
2024/04/21 10:31:08;;;;;;;4.22;2.00;;;;;;;;;;4980608;28;20384;-76
2024/04/21 10:33:43;;;;;;;4.53;2.15;;;;;;;;;;4980434;28;20546;-73
2024/04/21 10:36:20;;;;;;;6.15;2.20;;;;;;;;;;4980738;28;20028;-75
2024/04/21 10:38:54;;;;;;;7.72;2.47;;;;;;;;;;4987309;28;20044;-72
2024/04/21 10:41:28;;;;;;;5.82;2.03;;;;;;;;;;4986720;28;20341;-75
2024/04/21 10:43:59;;;;;;;3.50;2.20;;;;;;;;;;4981431;28;20523;-74
2024/04/21 10:46:29;;;;;;;2.92;1.95;;;;;;;;;;4984609;28;20032;-74
2024/04/21 10:49:00;;;;;;;5.18;2.20;;;;;;;;;;4982933;28;20033;-73
2024/04/21 10:51:32;;;;;;;5.03;2.08;;;;;;;;;;4980199;28;20033;-76
2024/04/21 10:54:07;;;;;;;8.63;2.45;;;;;;;;;;4980214;28;20446;-76
2024/04/21 10:56:38;;;;;;;9.85;2.83;;;;;;;;;;4980648;28;20033;-75
2024/04/21 10:59:08;;;;;;;4.15;2.58;;;;;;;;;;4980447;28;20245;-76
2024/04/21 11:01:38;;;;;;;4.30;2.50;;;;;;;;;;4980355;28;20005;-75
2024/04/21 11:04:11;;;;;;;5.05;3.03;;;;;;;;;;4979320;28;20041;-75
2024/04/21 11:06:42;;;;;;;6.65;3.20;;;;;;;;;;4980898;28;20040;-75
2024/04/21 11:09:12;;;;;;;10.60;2.70;;;;;;;;;;4980953;28;20037;-72
2024/04/21 11:11:43;;;;;;;11.05;3.72;;;;;;;;;;4981245;28;20038;-77
2024/04/21 11:14:14;;;;;;;4.78;3.28;;;;;;;;;;4980123;28;20029;-78
2024/04/21 11:16:52;;;;;;;4.20;3.42;;;;;;;;;;4982720;28;20873;-73
2024/04/21 11:19:23;;;;;;;4.07;3.05;;;;;;;;;;4989497;28;20037;-73
2024/04/21 11:21:55;;;;;;;3.70;2.88;;;;;;;;;;4959659;28;20041;-74
2024/04/21 11:24:26;;;;;;;9.30;3.20;;;;;;;;;;4979751;28;20497;-74
2024/04/21 11:26:58;;;;;;;5.75;2.30;;;;;;;;;;4980097;28;20372;-76
2024/04/21 11:29:32;;;;;;;2.70;1.75;;;;;;;;;;4979581;28;20631;-74
2024/04/21 11:32:03;;;;;;;7.05;3.35;;;;;;;;;;4980251;28;20048;-77
2024/04/21 11:34:36;;;;;;;5.55;1.90;;;;;;;;;;4980510;28;20413;-76
2024/04/21 11:37:21;;;;;;;7.80;1.92;;;;;;;;;;4953333;28;20744;-76
2024/04/21 11:39:52;;;;;;;4.05;1.40;;;;;;;;;;4980876;28;20033;-75
2024/04/21 11:42:24;;;;;;;3.80;1.70;;;;;;;;;;4980469;28;20032;-78
2024/04/21 11:44:55;;;;;;;2.53;1.40;;;;;;;;;;4980107;28;20335;-76
2024/04/21 11:47:25;;;;;;;3.30;1.42;;;;;;;;;;4980756;28;20044;-77
2024/04/21 11:49:56;;;;;;;5.18;1.65;;;;;;;;;;4980305;28;20032;-78
2024/04/21 11:52:26;;;;;;;2.22;1.35;;;;;;;;;;4980794;28;20505;-75
2024/04/21 11:54:58;;;;;;;5.57;1.58;;;;;;;;;;4980593;28;20029;-76
2024/04/21 11:57:28;;;;;;;3.38;1.30;;;;;;;;;;4981292;28;20369;-76
2024/04/21 11:59:58;;;;;;;2.13;1.15;;;;;;;;;;4954447;28;20005;-74
2024/04/21 12:02:33;;;;;;;2.38;1.30;;;;;;;;;;4980661;28;20032;-75
2024/04/21 12:05:04;;;;;;;1.85;1.10;;;;;;;;;;4980024;28;20044;-78
2024/04/21 12:07:35;;;;;;;3.42;1.33;;;;;;;;;;4980467;28;20036;-77
2024/04/21 12:10:06;;;;;;;6.43;1.58;;;;;;;;;;4980896;28;20036;-81
2024/04/21 12:12:37;;;;;;;4.13;1.25;;;;;;;;;;4981060;28;20041;-74
2024/04/21 12:15:11;;;;;;;1.85;1.13;;;;;;;;;;4981144;28;20021;-76
2024/04/21 12:17:41;;;;;;;2.78;1.73;;;;;;;;;;4980230;28;20040;-76
2024/04/21 12:20:11;;;;;;;6.80;3.30;;;;;;;;;;4979893;28;20062;-77
2024/04/21 12:22:48;;;;;;;2.65;1.30;;;;;;;;;;4980748;28;20022;-79
2024/04/21 12:25:19;;;;;;;5.18;1.20;;;;;;;;;;4953019;28;20041;-76
2024/04/21 12:27:49;;;;;;;2.60;1.02;;;;;;;;;;4980131;28;20032;-77
2024/04/21 12:30:21;;;;;;;3.65;1.17;;;;;;;;;;4979070;28;20033;-76
2024/04/21 12:32:52;;;;;;;6.18;1.10;;;;;;;;;;4950347;28;20050;-75
2024/04/21 12:35:23;;;;;;;5.88;1.30;;;;;;;;;;4947297;29;20010;-77
2024/04/21 12:37:53;;;;;;;3.03;1.02;;;;;;;;;;4948588;29;20005;-75
2024/04/21 12:40:23;;;;;;;7.82;1.45;;;;;;;;;;4951248;29;20033;-74
2024/04/21 12:42:54;;;;;;;5.03;1.75;;;;;;;;;;4949986;29;20792;-75
2024/04/21 12:45:26;;;;;;;2.00;1.15;;;;;;;;;;4952203;29;20034;-76
2024/04/21 12:47:56;;;;;;;1.40;1.00;;;;;;;;;;4951248;29;20124;-77
2024/04/21 12:50:26;;;;;;;1.98;1.00;;;;;;;;;;4951877;29;20810;-75
2024/04/21 12:52:56;;;;;;;5.40;1.17;;;;;;;;;;4952028;29;20025;-73
2024/04/21 12:55:28;;;;;;;2.03;1.20;;;;;;;;;;4952422;29;20063;-77
2024/04/21 12:57:58;;;;;;;3.47;1.20;;;;;;;;;;4949086;29;20008;-74
2024/04/21 13:00:29;;;;;;;2.42;1.30;;;;;;;;;;4950217;29;20033;-73
2024/04/21 13:02:59;;;;;;;8.23;1.10;;;;;;;;;;4950873;28;20019;-74
2024/04/21 13:05:31;;;;;;;2.13;0.90;;;;;;;;;;4949709;28;20033;-74
2024/04/21 13:08:03;;;;;;;3.97;1.35;;;;;;;;;;4951074;29;20361;-74
2024/04/21 13:10:34;;;;;;;4.15;1.15;;;;;;;;;;4951849;29;20029;-76
2024/04/21 13:13:04;;;;;;;1.45;1.05;;;;;;;;;;4951809;29;21129;-73
2024/04/21 13:15:34;;;;;;;2.70;1.02;;;;;;;;;;4951552;29;20030;-76
2024/04/21 13:18:05;;;;;;;8.73;1.40;;;;;;;;;;4952216;29;20033;-75
2024/04/21 13:20:36;;;;;;;4.70;1.23;;;;;;;;;;4952254;29;21163;-77
2024/04/21 13:23:06;;;;;;;2.53;1.20;;;;;;;;;;4951949;29;20038;-74
2024/04/21 13:25:37;;;;;;;2.00;1.30;;;;;;;;;;4950972;29;20044;-76
2024/04/21 13:28:08;;;;;;;3.65;1.20;;;;;;;;;;4949221;29;20005;-74
2024/04/21 13:30:40;;;;;;;7.50;1.25;;;;;;;;;;4951171;28;20033;-74
2024/04/21 13:33:10;;;;;;;5.70;1.30;;;;;;;;;;4949902;29;20005;-74
2024/04/21 13:35:40;;;;;;;4.00;1.25;;;;;;;;;;4951683;29;20045;-76
2024/04/21 13:38:12;;;;;;;6.93;1.35;;;;;;;;;;4951857;29;20049;-75
2024/04/21 13:40:43;;;;;;;5.40;1.48;;;;;;;;;;4951094;28;20009;-76
2024/04/21 13:43:13;;;;;;;3.00;1.35;;;;;;;;;;4951390;29;20067;-77
2024/04/21 13:45:44;;;;;;;3.13;1.30;;;;;;;;;;4952246;29;20486;-74
2024/04/21 13:48:15;;;;;;;1.75;1.30;;;;;;;;;;4951075;29;20474;-76
2024/04/21 13:50:46;;;;;;;2.83;1.50;;;;;;;;;;4951140;29;20052;-76
2024/04/21 13:53:17;;;;;;;4.85;1.67;;;;;;;;;;4951586;29;20016;-73
2024/04/21 13:55:47;;;;;;;3.17;1.45;;;;;;;;;;4951128;29;20065;-72
2024/04/21 13:58:18;;;;;;;2.60;1.38;;;;;;;;;;4950702;28;20367;-73
2024/04/21 14:00:49;;;;;;;4.63;1.60;;;;;;;;;;4950906;29;20532;-72
2024/04/21 14:03:19;;;;;;;6.72;1.60;;;;;;;;;;4949920;29;20020;-76
2024/04/21 14:05:49;;;;;;;3.78;1.60;;;;;;;;;;4951251;29;20038;-76
2024/04/21 14:08:20;;;;;;;1.92;1.48;;;;;;;;;;4950203;29;20016;-76
2024/04/21 14:10:51;;;;;;;2.65;1.58;;;;;;;;;;4949383;29;20038;-76
2024/04/21 14:13:23;;;;;;;5.80;1.60;;;;;;;;;;4950978;29;20005;-76
2024/04/21 14:15:53;;;;;;;2.65;1.30;;;;;;;;;;4949129;29;20005;-75
2024/04/21 14:18:26;;;;;;;6.57;1.52;;;;;;;;;;4948257;28;20057;-76
2024/04/21 14:20:57;;;;;;;3.33;1.70;;;;;;;;;;4951238;29;20531;-73
2024/04/21 14:23:30;;;;;;;4.28;1.92;;;;;;;;;;4951259;29;20058;-74
2024/04/21 14:26:05;;;;;;;6.43;2.30;;;;;;;;;;4951430;29;20037;-76
2024/04/21 14:28:36;;;;;;;12.88;2.42;;;;;;;;;;4949359;28;20320;-79
2024/04/21 14:31:07;;;;;;;5.85;2.55;;;;;;;;;;4948717;29;20009;-77
2024/04/21 14:33:38;;;;;;;6.07;2.20;;;;;;;;;;4949617;29;20006;-76
2024/04/21 14:36:08;;;;;;;4.00;2.40;;;;;;;;;;4951095;29;20033;-75
2024/04/21 14:38:39;;;;;;;2.65;1.80;;;;;;;;;;4949914;29;20045;-78
2024/04/21 14:41:14;;;;;;;3.25;1.90;;;;;;;;;;4950742;29;20036;-75
2024/04/21 14:43:45;;;;;;;8.40;1.98;;;;;;;;;;4951199;29;20037;-76
2024/04/21 14:46:16;;;;;;;3.88;1.90;;;;;;;;;;4950711;29;20381;-75
2024/04/21 14:48:46;;;;;;;4.50;2.00;;;;;;;;;;4950154;29;20033;-76
2024/04/21 14:51:16;;;;;;;3.25;1.50;;;;;;;;;;4950417;29;20005;-71
2024/04/21 14:53:48;;;;;;;5.25;1.95;;;;;;;;;;4950537;29;20006;-74
2024/04/21 14:56:20;;;;;;;4.60;1.50;;;;;;;;;;4948822;29;20002;-75
2024/04/21 14:58:51;;;;;;;2.28;1.40;;;;;;;;;;4950209;29;20329;-74
2024/04/21 15:01:22;;;;;;;2.42;1.70;;;;;;;;;;4950099;29;20029;-77
2024/04/21 15:03:55;;;;;;;2.33;1.50;;;;;;;;;;4948589;29;20033;-75
2024/04/21 15:06:26;;;;;;;2.88;1.63;;;;;;;;;;4948621;29;20019;-74
2024/04/21 15:09:00;;;;;;;3.25;1.63;;;;;;;;;;4948397;29;20005;-74